Cross Lake, Canada
Current Conditions -  °F | °C
As of 6:00 AM on Thursday 18 Dec 2014 (Local Time) from CYNE Reporting Station
Clear Clear  
Wind Chill: -11°   Ceiling: Unl
Heat Index:   Visibility: 9mi
Dew Point: -2°   Wind: 7mph
Humidity: 85%   Direction: 190°S
Pressure: 30.14"   Gusts: NA
Location:  54.62°N, 97.78°W
Report Text: CYNE 181200Z AUTO 19006KT 9SM CLR M17/M19 A3014 RMK SLP232
Loading
Personal Weather Stations






























Interactive Weather Map New forecast layout! Learn more

10-Day Weather Forecast

Advertisements
Track Severe Weather on mobile